Time;durP1;ratioP1;P1;durP2;ratioP2;P2;SDS_P1;SDS_P2;PMS_P1;PMS_P2;Temp;Humidity;BMP_temperature;BMP_pressure;BME280_temperature;BME280_humidity;BME280_pressure;Samples;Min_cycle;Max_cycle;Signal;HPM_P1;HPM_P2
2021/05/07 00:00:06;;;;;;;4.20;0.98;;;;;;;;;;5052163;28;20056;-64
2021/05/07 00:02:35;;;;;;;2.65;0.85;;;;;;;;;;5051000;28;20060;-63
2021/05/07 00:05:02;;;;;;;3.90;0.90;;;;;;;;;;5051435;28;20055;-64
2021/05/07 00:07:30;;;;;;;2.60;1.02;;;;;;;;;;5050306;28;20049;-62
2021/05/07 00:09:58;;;;;;;2.08;0.95;;;;;;;;;;5051676;28;20503;-62
2021/05/07 00:12:25;;;;;;;3.58;1.10;;;;;;;;;;5051726;28;20546;-63
2021/05/07 00:14:53;;;;;;;5.28;0.98;;;;;;;;;;5051228;28;20071;-63
2021/05/07 00:17:20;;;;;;;2.47;0.80;;;;;;;;;;5046199;28;20137;-62
2021/05/07 00:19:49;;;;;;;2.95;1.13;;;;;;;;;;5050451;28;20040;-62
2021/05/07 00:22:16;;;;;;;3.10;0.70;;;;;;;;;;5050321;28;20106;-64
2021/05/07 00:24:44;;;;;;;1.60;0.68;;;;;;;;;;5050736;28;20563;-62
2021/05/07 00:27:14;;;;;;;1.42;0.60;;;;;;;;;;5049498;28;20565;-65
2021/05/07 00:29:41;;;;;;;3.25;0.70;;;;;;;;;;5051869;28;20045;-62
2021/05/07 00:32:08;;;;;;;2.60;0.60;;;;;;;;;;5050374;28;20325;-62
2021/05/07 00:34:36;;;;;;;2.55;0.68;;;;;;;;;;5050761;28;20122;-66
2021/05/07 00:37:04;;;;;;;2.67;0.57;;;;;;;;;;5034929;28;20087;-65
2021/05/07 00:39:31;;;;;;;1.88;0.40;;;;;;;;;;5036682;28;20307;-62
2021/05/07 00:42:02;;;;;;;2.78;0.55;;;;;;;;;;5050435;28;20099;-63
2021/05/07 00:44:30;;;;;;;2.05;0.80;;;;;;;;;;5050363;28;20069;-64
2021/05/07 00:47:04;;;;;;;1.60;0.50;;;;;;;;;;5050480;28;20120;-62
2021/05/07 00:49:32;;;;;;;2.67;0.50;;;;;;;;;;5045821;28;20452;-62
2021/05/07 00:52:00;;;;;;;2.88;0.90;;;;;;;;;;5050679;28;20056;-63
2021/05/07 00:54:29;;;;;;;1.58;0.52;;;;;;;;;;5049578;28;20564;-62
2021/05/07 00:56:56;;;;;;;1.58;0.52;;;;;;;;;;5048547;28;20118;-63
2021/05/07 00:59:24;;;;;;;1.17;0.60;;;;;;;;;;5049009;28;20087;-64
2021/05/07 01:01:51;;;;;;;1.60;0.60;;;;;;;;;;5051447;28;20127;-62
2021/05/07 01:04:19;;;;;;;1.80;0.60;;;;;;;;;;5046202;28;20131;-64
2021/05/07 01:06:46;;;;;;;1.30;0.40;;;;;;;;;;5048714;28;20055;-62
2021/05/07 01:09:14;;;;;;;0.52;0.40;;;;;;;;;;5050009;28;20163;-64
2021/05/07 01:11:43;;;;;;;0.40;0.40;;;;;;;;;;5051410;28;20132;-62
2021/05/07 01:14:10;;;;;;;1.63;0.57;;;;;;;;;;5050593;28;20089;-63
2021/05/07 01:16:37;;;;;;;0.50;0.30;;;;;;;;;;5047957;28;20049;-64
2021/05/07 01:19:05;;;;;;;1.25;0.38;;;;;;;;;;5046221;28;20132;-63
2021/05/07 01:21:34;;;;;;;1.38;0.57;;;;;;;;;;5049747;28;20567;-62
2021/05/07 01:24:01;;;;;;;2.38;0.50;;;;;;;;;;5049613;28;20131;-62
2021/05/07 01:26:28;;;;;;;1.13;0.50;;;;;;;;;;5049518;28;20136;-63
2021/05/07 01:28:56;;;;;;;0.52;0.30;;;;;;;;;;5043702;28;20900;-63
2021/05/07 01:31:23;;;;;;;1.90;0.43;;;;;;;;;;5052804;28;20713;-63
2021/05/07 01:33:50;;;;;;;1.75;0.68;;;;;;;;;;5053856;28;20140;-62
2021/05/07 01:36:17;;;;;;;2.08;0.57;;;;;;;;;;5051719;28;20083;-64
2021/05/07 01:38:46;;;;;;;1.15;0.52;;;;;;;;;;5040714;28;20127;-63
2021/05/07 01:41:13;;;;;;;1.35;0.40;;;;;;;;;;5035128;28;20091;-67
2021/05/07 01:43:40;;;;;;;1.48;0.40;;;;;;;;;;5048085;28;20077;-62
2021/05/07 01:46:08;;;;;;;1.00;0.57;;;;;;;;;;5054146;28;20137;-65
2021/05/07 01:48:35;;;;;;;0.50;0.50;;;;;;;;;;5053468;28;20142;-64
2021/05/07 01:51:04;;;;;;;2.60;0.60;;;;;;;;;;5050310;28;20107;-63
2021/05/07 01:53:31;;;;;;;0.57;0.40;;;;;;;;;;5053433;28;20115;-62
2021/05/07 01:56:00;;;;;;;1.25;0.40;;;;;;;;;;5053448;28;20049;-63
2021/05/07 01:58:27;;;;;;;0.65;0.40;;;;;;;;;;5053532;28;20495;-64
2021/05/07 02:00:54;;;;;;;2.38;0.70;;;;;;;;;;5054267;28;20106;-66
2021/05/07 02:03:22;;;;;;;1.10;0.40;;;;;;;;;;5053163;28;20080;-63
2021/05/07 02:05:49;;;;;;;1.65;0.60;;;;;;;;;;5053512;28;20041;-62
2021/05/07 02:08:16;;;;;;;1.02;0.55;;;;;;;;;;5052200;28;20076;-62
2021/05/07 02:10:43;;;;;;;1.67;0.50;;;;;;;;;;5053587;28;20073;-64
2021/05/07 02:13:12;;;;;;;2.47;0.40;;;;;;;;;;5053676;28;20555;-63
2021/05/07 02:15:39;;;;;;;3.50;0.68;;;;;;;;;;5054452;28;20099;-62
2021/05/07 02:18:08;;;;;;;2.25;0.68;;;;;;;;;;5052830;28;20045;-63
2021/05/07 02:20:37;;;;;;;0.95;0.40;;;;;;;;;;5053738;28;20051;-70
2021/05/07 02:23:06;;;;;;;0.82;0.50;;;;;;;;;;5050370;28;20052;-68
2021/05/07 02:25:33;;;;;;;0.95;0.60;;;;;;;;;;5053556;28;20068;-63
2021/05/07 02:28:00;;;;;;;3.75;0.70;;;;;;;;;;5049129;28;20045;-63
2021/05/07 02:30:29;;;;;;;1.35;0.50;;;;;;;;;;5052855;28;20508;-62
2021/05/07 02:32:56;;;;;;;2.83;0.70;;;;;;;;;;5052717;28;20565;-62
2021/05/07 02:35:24;;;;;;;0.70;0.50;;;;;;;;;;5051061;28;20124;-62
2021/05/07 02:37:52;;;;;;;2.83;0.63;;;;;;;;;;5048913;28;20103;-63
2021/05/07 02:40:19;;;;;;;3.72;0.80;;;;;;;;;;5053273;28;20091;-66
2021/05/07 02:42:46;;;;;;;2.45;0.75;;;;;;;;;;5052646;28;20041;-65
2021/05/07 02:45:14;;;;;;;2.25;0.63;;;;;;;;;;5052975;28;20087;-64
2021/05/07 02:47:43;;;;;;;2.22;0.60;;;;;;;;;;5051974;28;20524;-63
2021/05/07 02:50:11;;;;;;;2.20;0.73;;;;;;;;;;5052247;28;20219;-63
2021/05/07 02:52:40;;;;;;;2.15;0.60;;;;;;;;;;5047983;28;20447;-63
2021/05/07 02:55:09;;;;;;;2.03;0.73;;;;;;;;;;5052619;28;20110;-64
2021/05/07 02:57:36;;;;;;;3.88;0.68;;;;;;;;;;5051664;28;20563;-64
2021/05/07 03:00:04;;;;;;;1.08;0.70;;;;;;;;;;5053308;28;20045;-62
2021/05/07 03:02:32;;;;;;;1.75;0.75;;;;;;;;;;5052728;28;20091;-63
2021/05/07 03:05:00;;;;;;;1.30;0.60;;;;;;;;;;5052222;28;20439;-63
2021/05/07 03:07:28;;;;;;;1.38;0.52;;;;;;;;;;5051538;28;20118;-62
2021/05/07 03:09:55;;;;;;;2.92;0.82;;;;;;;;;;5053434;28;20084;-63
2021/05/07 03:12:23;;;;;;;1.90;0.50;;;;;;;;;;5052181;28;20484;-63
2021/05/07 03:14:52;;;;;;;2.88;0.60;;;;;;;;;;5052661;28;20103;-62
2021/05/07 03:17:19;;;;;;;0.65;0.40;;;;;;;;;;5052340;28;20106;-62
2021/05/07 03:19:46;;;;;;;2.33;0.52;;;;;;;;;;5052971;28;20053;-62
2021/05/07 03:22:14;;;;;;;5.18;2.05;;;;;;;;;;5048925;28;20764;-63
2021/05/07 03:24:43;;;;;;;4.15;0.50;;;;;;;;;;5051285;28;20047;-65
2021/05/07 03:27:10;;;;;;;4.43;1.23;;;;;;;;;;5051121;28;20564;-62
2021/05/07 03:29:38;;;;;;;0.82;0.60;;;;;;;;;;5052574;28;20131;-63
2021/05/07 03:32:06;;;;;;;1.27;0.60;;;;;;;;;;5050838;28;20045;-64
2021/05/07 03:34:34;;;;;;;4.10;1.20;;;;;;;;;;5052100;28;20512;-66
2021/05/07 03:37:01;;;;;;;3.45;0.70;;;;;;;;;;5046437;28;20574;-62
2021/05/07 03:39:30;;;;;;;2.78;0.80;;;;;;;;;;5051718;28;20088;-63
2021/05/07 03:41:57;;;;;;;2.47;0.70;;;;;;;;;;5052085;28;20164;-64
2021/05/07 03:44:24;;;;;;;1.30;0.60;;;;;;;;;;5052184;28;20053;-63
2021/05/07 03:46:51;;;;;;;1.45;0.75;;;;;;;;;;5052418;28;20053;-63
2021/05/07 03:49:19;;;;;;;1.17;0.60;;;;;;;;;;5051587;28;20057;-65
2021/05/07 03:51:46;;;;;;;2.05;0.70;;;;;;;;;;5052207;28;20124;-63
2021/05/07 03:54:14;;;;;;;2.03;0.70;;;;;;;;;;5046697;28;20110;-62
2021/05/07 03:56:42;;;;;;;2.75;0.70;;;;;;;;;;5051834;28;20128;-62
2021/05/07 03:59:09;;;;;;;3.10;1.05;;;;;;;;;;5051202;28;20135;-62
2021/05/07 04:01:36;;;;;;;6.15;1.20;;;;;;;;;;5051895;28;20084;-62
2021/05/07 04:04:06;;;;;;;4.07;0.80;;;;;;;;;;5051271;28;20052;-63
2021/05/07 04:06:35;;;;;;;5.38;0.90;;;;;;;;;;5031837;28;20516;-64
2021/05/07 04:09:06;;;;;;;5.22;1.20;;;;;;;;;;5051168;28;20480;-63
2021/05/07 04:11:38;;;;;;;3.78;1.17;;;;;;;;;;5051325;28;20395;-63
2021/05/07 04:14:06;;;;;;;4.45;1.17;;;;;;;;;;5051240;28;20084;-65
2021/05/07 04:16:33;;;;;;;6.97;1.38;;;;;;;;;;5051469;28;20094;-63
2021/05/07 04:19:01;;;;;;;6.07;1.27;;;;;;;;;;5049852;28;20119;-65
2021/05/07 04:21:28;;;;;;;4.05;1.40;;;;;;;;;;5050822;28;20091;-63
2021/05/07 04:23:55;;;;;;;4.38;1.08;;;;;;;;;;5051460;28;20044;-64
2021/05/07 04:26:23;;;;;;;4.47;1.95;;;;;;;;;;5046151;28;20078;-65
2021/05/07 04:28:50;;;;;;;5.32;1.17;;;;;;;;;;5050549;28;20060;-63
2021/05/07 04:31:18;;;;;;;4.88;1.20;;;;;;;;;;5051573;28;20040;-68
2021/05/07 04:33:45;;;;;;;3.30;1.00;;;;;;;;;;5052149;28;20549;-64
2021/05/07 04:36:13;;;;;;;4.22;1.00;;;;;;;;;;5051535;28;20139;-63
2021/05/07 04:38:40;;;;;;;3.65;1.17;;;;;;;;;;5050483;28;20063;-62
2021/05/07 04:41:08;;;;;;;5.45;1.10;;;;;;;;;;5055597;28;20048;-63
2021/05/07 04:43:35;;;;;;;5.35;1.10;;;;;;;;;;5059921;28;20045;-64
2021/05/07 04:46:03;;;;;;;4.45;1.98;;;;;;;;;;5032515;28;20105;-62
2021/05/07 04:48:31;;;;;;;5.50;1.48;;;;;;;;;;5036112;28;20053;-63
2021/05/07 04:50:59;;;;;;;4.07;1.20;;;;;;;;;;5050866;28;20049;-63
2021/05/07 04:53:26;;;;;;;4.80;1.35;;;;;;;;;;5050049;28;20118;-63
2021/05/07 04:55:54;;;;;;;4.82;0.90;;;;;;;;;;5040702;28;20123;-62
2021/05/07 04:58:22;;;;;;;4.13;1.40;;;;;;;;;;5050315;28;20496;-63
2021/05/07 05:00:50;;;;;;;2.13;1.17;;;;;;;;;;5050767;28;20124;-62
2021/05/07 05:03:18;;;;;;;4.57;1.10;;;;;;;;;;5050098;28;20041;-65
2021/05/07 05:05:47;;;;;;;2.35;0.88;;;;;;;;;;5050279;28;20057;-62
2021/05/07 05:08:21;;;;;;;3.75;0.82;;;;;;;;;;5049856;28;20044;-62
2021/05/07 05:10:48;;;;;;;2.63;0.95;;;;;;;;;;5049197;28;20053;-64
2021/05/07 05:13:16;;;;;;;3.63;1.10;;;;;;;;;;5050156;28;20083;-64
2021/05/07 05:15:44;;;;;;;3.67;1.38;;;;;;;;;;5050358;28;20071;-64
2021/05/07 05:18:11;;;;;;;3.53;1.23;;;;;;;;;;5042661;28;20045;-62
2021/05/07 05:20:39;;;;;;;9.30;1.20;;;;;;;;;;5049168;28;20401;-62
2021/05/07 05:23:07;;;;;;;2.22;1.15;;;;;;;;;;5048650;28;20057;-62
2021/05/07 05:25:35;;;;;;;3.10;0.95;;;;;;;;;;5049681;28;20049;-67
2021/05/07 05:28:02;;;;;;;3.10;0.90;;;;;;;;;;5049187;28;20454;-63
2021/05/07 05:30:29;;;;;;;3.90;1.20;;;;;;;;;;5049279;28;20154;-62
2021/05/07 05:32:57;;;;;;;6.32;1.10;;;;;;;;;;5048551;28;20049;-63
2021/05/07 05:35:25;;;;;;;4.20;1.00;;;;;;;;;;5049639;28;20056;-61
2021/05/07 05:37:52;;;;;;;4.53;1.65;;;;;;;;;;5047465;28;20555;-62
2021/05/07 05:40:20;;;;;;;4.25;1.90;;;;;;;;;;5049304;28;20056;-64
2021/05/07 05:42:48;;;;;;;5.90;1.55;;;;;;;;;;5049060;28;20501;-62
2021/05/07 05:45:15;;;;;;;5.43;1.60;;;;;;;;;;5049644;28;20122;-64
2021/05/07 05:47:43;;;;;;;3.72;1.25;;;;;;;;;;5048362;28;20068;-64
2021/05/07 05:50:11;;;;;;;5.80;1.30;;;;;;;;;;5048939;28;20053;-63
2021/05/07 05:52:41;;;;;;;2.85;0.90;;;;;;;;;;5048787;28;20053;-68
2021/05/07 05:55:09;;;;;;;2.88;1.20;;;;;;;;;;5050471;28;20059;-66
2021/05/07 05:57:37;;;;;;;5.45;1.23;;;;;;;;;;5046661;28;20488;-67
2021/05/07 06:00:05;;;;;;;4.75;1.38;;;;;;;;;;5048092;28;20420;-64
2021/05/07 06:02:33;;;;;;;3.60;1.00;;;;;;;;;;5050147;28;20351;-62
2021/05/07 06:05:01;;;;;;;9.52;1.38;;;;;;;;;;5055663;28;20045;-68
2021/05/07 06:07:29;;;;;;;2.47;0.75;;;;;;;;;;5058428;28;20077;-63
2021/05/07 06:09:57;;;;;;;3.30;0.90;;;;;;;;;;5048980;28;20045;-62
2021/05/07 06:12:25;;;;;;;3.33;0.60;;;;;;;;;;5068697;28;20593;-63
2021/05/07 06:14:53;;;;;;;1.55;0.77;;;;;;;;;;5059868;28;20049;-63
2021/05/07 06:17:21;;;;;;;3.47;0.50;;;;;;;;;;5068408;28;20525;-64
2021/05/07 06:19:48;;;;;;;1.50;0.52;;;;;;;;;;5059891;28;20272;-63
2021/05/07 06:22:16;;;;;;;2.47;0.55;;;;;;;;;;5060141;28;20102;-64
2021/05/07 06:24:44;;;;;;;1.05;0.60;;;;;;;;;;5061372;28;20103;-64
2021/05/07 06:27:12;;;;;;;1.75;0.65;;;;;;;;;;5061292;28;20042;-64
2021/05/07 06:29:40;;;;;;;2.92;0.77;;;;;;;;;;5053785;28;20053;-62
2021/05/07 06:32:09;;;;;;;3.20;1.20;;;;;;;;;;5055984;28;20094;-62
2021/05/07 06:34:40;;;;;;;2.13;0.63;;;;;;;;;;5055705;28;20627;-64
2021/05/07 06:37:08;;;;;;;4.88;0.98;;;;;;;;;;5052492;28;20049;-65
2021/05/07 06:39:36;;;;;;;3.42;1.45;;;;;;;;;;5053347;28;20136;-63
2021/05/07 06:42:05;;;;;;;2.20;0.85;;;;;;;;;;5069880;28;20136;-64
2021/05/07 06:44:33;;;;;;;1.27;0.60;;;;;;;;;;5070551;28;20055;-63
2021/05/07 06:47:01;;;;;;;1.90;0.68;;;;;;;;;;5072377;28;20055;-62
2021/05/07 06:49:30;;;;;;;2.40;0.77;;;;;;;;;;5068855;28;20852;-64
2021/05/07 06:51:58;;;;;;;1.52;0.52;;;;;;;;;;5052915;28;20049;-65
2021/05/07 06:54:27;;;;;;;0.77;0.57;;;;;;;;;;5065737;28;20051;-63
2021/05/07 06:56:56;;;;;;;4.15;1.05;;;;;;;;;;5062668;28;20048;-64
2021/05/07 06:59:24;;;;;;;3.60;0.80;;;;;;;;;;5066605;28;20051;-67
2021/05/07 07:01:52;;;;;;;4.20;0.95;;;;;;;;;;5058167;28;20072;-64
2021/05/07 07:04:20;;;;;;;3.20;1.00;;;;;;;;;;5055036;28;20052;-63
2021/05/07 07:06:49;;;;;;;2.97;0.80;;;;;;;;;;5059243;28;20056;-63
2021/05/07 07:09:17;;;;;;;2.60;0.57;;;;;;;;;;5065442;28;20131;-63
2021/05/07 07:11:48;;;;;;;0.90;0.68;;;;;;;;;;5061934;28;20351;-63
2021/05/07 07:14:16;;;;;;;4.47;0.60;;;;;;;;;;5048827;28;20590;-66
2021/05/07 07:16:44;;;;;;;0.90;0.50;;;;;;;;;;5052734;28;20103;-66
2021/05/07 07:19:12;;;;;;;0.65;0.52;;;;;;;;;;5052217;28;20084;-64
2021/05/07 07:22:02;;;;;;;1.77;0.60;;;;;;;;;;5066580;28;20084;-65
2021/05/07 07:24:29;;;;;;;1.23;0.50;;;;;;;;;;5062613;28;20083;-63
2021/05/07 07:26:57;;;;;;;2.58;0.50;;;;;;;;;;5067362;28;20045;-63
2021/05/07 07:29:26;;;;;;;2.20;0.47;;;;;;;;;;5060544;28;20135;-65
2021/05/07 07:31:54;;;;;;;2.15;0.60;;;;;;;;;;5050581;28;20561;-63
2021/05/07 07:34:22;;;;;;;0.95;0.40;;;;;;;;;;5051008;28;20048;-66
2021/05/07 07:36:50;;;;;;;5.53;0.75;;;;;;;;;;5049941;28;20053;-63
2021/05/07 07:39:19;;;;;;;2.05;0.82;;;;;;;;;;5047535;28;20087;-64
2021/05/07 07:41:47;;;;;;;2.25;0.55;;;;;;;;;;5049759;28;20052;-68
2021/05/07 07:44:16;;;;;;;1.65;0.50;;;;;;;;;;5051772;28;20519;-65
2021/05/07 07:46:44;;;;;;;2.08;0.30;;;;;;;;;;5050910;28;20171;-66
2021/05/07 07:49:12;;;;;;;0.47;0.38;;;;;;;;;;5051111;28;20053;-67
2021/05/07 07:51:40;;;;;;;1.10;0.43;;;;;;;;;;5051005;28;20048;-63
2021/05/07 07:54:09;;;;;;;1.77;0.50;;;;;;;;;;5050436;28;20045;-65
2021/05/07 07:56:38;;;;;;;1.52;0.63;;;;;;;;;;5052600;28;20052;-61
2021/05/07 07:59:06;;;;;;;4.05;1.00;;;;;;;;;;5054494;28;20047;-64
2021/05/07 08:01:35;;;;;;;2.13;0.90;;;;;;;;;;5054625;28;20067;-64
2021/05/07 08:04:03;;;;;;;1.40;0.85;;;;;;;;;;5050007;28;20076;-64
2021/05/07 08:06:32;;;;;;;0.65;0.50;;;;;;;;;;5048952;28;20053;-66
2021/05/07 08:09:01;;;;;;;2.15;0.52;;;;;;;;;;5056841;28;20060;-66
2021/05/07 08:11:29;;;;;;;0.95;0.35;;;;;;;;;;5044226;28;20040;-63
2021/05/07 08:13:58;;;;;;;0.88;0.20;;;;;;;;;;5067915;28;20487;-64
2021/05/07 08:16:27;;;;;;;1.95;0.43;;;;;;;;;;5040271;28;20506;-64
2021/05/07 08:18:55;;;;;;;0.45;0.30;;;;;;;;;;5047295;28;20513;-64
2021/05/07 08:21:25;;;;;;;0.20;0.20;;;;;;;;;;5051227;28;20045;-64
2021/05/07 08:23:53;;;;;;;0.38;0.25;;;;;;;;;;5054944;28;20075;-65
2021/05/07 08:26:21;;;;;;;0.38;0.20;;;;;;;;;;5058462;28;20130;-63
2021/05/07 08:28:50;;;;;;;0.65;0.25;;;;;;;;;;5058165;28;20053;-66
2021/05/07 08:31:20;;;;;;;0.60;0.28;;;;;;;;;;5063369;28;20493;-64
2021/05/07 08:33:48;;;;;;;0.40;0.32;;;;;;;;;;5055101;28;20049;-63
2021/05/07 08:36:16;;;;;;;0.60;0.30;;;;;;;;;;5047248;28;20048;-65
2021/05/07 08:38:44;;;;;;;0.85;0.30;;;;;;;;;;5060838;28;20059;-66
2021/05/07 08:41:12;;;;;;;0.55;0.52;;;;;;;;;;5046790;28;20496;-63
2021/05/07 08:43:40;;;;;;;1.20;0.40;;;;;;;;;;5047855;28;20106;-63
2021/05/07 08:46:09;;;;;;;1.42;0.40;;;;;;;;;;5062351;28;20515;-64
2021/05/07 08:48:38;;;;;;;0.52;0.30;;;;;;;;;;5067687;28;20060;-63
2021/05/07 08:51:07;;;;;;;2.60;0.40;;;;;;;;;;5052507;28;20098;-63
2021/05/07 08:53:36;;;;;;;0.65;0.28;;;;;;;;;;5052874;28;20083;-64
2021/05/07 08:56:14;;;;;;;1.95;0.40;;;;;;;;;;5049238;28;20182;-63
2021/05/07 08:58:42;;;;;;;1.05;0.47;;;;;;;;;;5049415;28;20436;-63
2021/05/07 09:01:10;;;;;;;1.10;0.40;;;;;;;;;;5054702;28;20037;-65
2021/05/07 09:03:40;;;;;;;0.85;0.35;;;;;;;;;;5058520;28;20446;-62
2021/05/07 09:06:17;;;;;;;2.05;0.45;;;;;;;;;;5053939;28;20048;-63
2021/05/07 09:08:46;;;;;;;1.60;0.32;;;;;;;;;;5050368;28;20387;-64
2021/05/07 09:11:14;;;;;;;1.77;0.47;;;;;;;;;;5049876;28;20127;-66
2021/05/07 09:13:43;;;;;;;0.82;0.50;;;;;;;;;;5049665;28;20049;-62
2021/05/07 09:16:11;;;;;;;0.20;0.20;;;;;;;;;;5010913;28;20050;-63
2021/05/07 09:18:43;;;;;;;0.60;0.45;;;;;;;;;;5012808;28;20053;-63
2021/05/07 09:21:12;;;;;;;1.02;0.40;;;;;;;;;;5013320;28;20103;-64
2021/05/07 09:23:41;;;;;;;0.30;0.30;;;;;;;;;;5012269;28;20058;-65
2021/05/07 09:26:09;;;;;;;0.80;0.40;;;;;;;;;;5010973;28;20053;-63
2021/05/07 09:28:38;;;;;;;0.80;0.60;;;;;;;;;;5013870;28;20132;-62
2021/05/07 09:31:13;;;;;;;2.55;0.50;;;;;;;;;;5012019;28;20060;-63
2021/05/07 09:33:43;;;;;;;0.50;0.47;;;;;;;;;;5009097;28;20057;-64
2021/05/07 09:36:22;;;;;;;1.02;0.30;;;;;;;;;;5009141;28;20065;-64
2021/05/07 09:38:51;;;;;;;0.32;0.32;;;;;;;;;;5011901;28;20054;-66
2021/05/07 09:41:40;;;;;;;0.45;0.45;;;;;;;;;;5010670;28;20052;-66
2021/05/07 09:44:17;;;;;;;1.02;0.50;;;;;;;;;;5013643;28;20052;-63
2021/05/07 09:46:45;;;;;;;0.40;0.40;;;;;;;;;;5017804;28;20077;-63
2021/05/07 09:49:27;;;;;;;1.35;0.50;;;;;;;;;;5010740;28;20050;-64
2021/05/07 09:51:56;;;;;;;0.98;0.50;;;;;;;;;;5027406;28;20053;-63
2021/05/07 09:54:25;;;;;;;0.50;0.45;;;;;;;;;;5023859;28;20053;-65
2021/05/07 09:56:54;;;;;;;0.68;0.55;;;;;;;;;;5016998;28;20042;-62
2021/05/07 09:59:23;;;;;;;0.57;0.40;;;;;;;;;;5024484;28;20042;-66
2021/05/07 10:01:52;;;;;;;2.05;0.47;;;;;;;;;;5019778;28;20056;-65
2021/05/07 10:04:20;;;;;;;0.73;0.40;;;;;;;;;;5015225;28;20073;-66
2021/05/07 10:06:49;;;;;;;3.97;1.10;;;;;;;;;;5027972;28;20049;-62
2021/05/07 10:09:27;;;;;;;0.70;0.70;;;;;;;;;;5029964;28;20057;-68
2021/05/07 10:11:57;;;;;;;1.63;0.70;;;;;;;;;;5012772;28;20312;-64
2021/05/07 10:14:26;;;;;;;1.58;0.70;;;;;;;;;;5035628;28;20155;-63
2021/05/07 10:16:55;;;;;;;4.20;0.88;;;;;;;;;;5067540;28;20050;-66
2021/05/07 10:19:24;;;;;;;4.35;0.82;;;;;;;;;;5059373;28;20049;-63
2021/05/07 10:22:08;;;;;;;4.65;0.95;;;;;;;;;;5063733;28;20056;-63
2021/05/07 10:24:37;;;;;;;1.33;0.77;;;;;;;;;;5068141;28;20683;-63
2021/05/07 10:27:15;;;;;;;1.20;0.70;;;;;;;;;;5071694;28;20040;-64
2021/05/07 10:29:52;;;;;;;3.95;0.80;;;;;;;;;;5062509;28;20056;-62
2021/05/07 10:32:31;;;;;;;0.95;0.82;;;;;;;;;;5058440;28;20080;-67
2021/05/07 10:35:00;;;;;;;1.45;1.05;;;;;;;;;;5058067;28;20045;-62
2021/05/07 10:37:39;;;;;;;4.82;1.10;;;;;;;;;;5055476;28;20099;-66
2021/05/07 10:40:08;;;;;;;2.72;1.00;;;;;;;;;;5061188;28;20048;-64
2021/05/07 10:42:36;;;;;;;4.10;1.05;;;;;;;;;;5063885;28;20040;-65
2021/05/07 10:45:05;;;;;;;1.30;1.00;;;;;;;;;;5046299;28;20106;-65
2021/05/07 10:47:36;;;;;;;3.00;0.90;;;;;;;;;;5057533;28;20047;-64
2021/05/07 10:50:15;;;;;;;2.63;1.10;;;;;;;;;;5057069;28;20044;-64
2021/05/07 10:52:44;;;;;;;2.15;0.98;;;;;;;;;;5052523;28;22237;-63
2021/05/07 10:55:12;;;;;;;1.30;1.00;;;;;;;;;;5051993;28;20557;-62
2021/05/07 10:57:40;;;;;;;1.98;1.58;;;;;;;;;;5050710;28;20053;-66
2021/05/07 11:00:09;;;;;;;3.10;2.00;;;;;;;;;;5062321;28;20037;-64
2021/05/07 11:02:44;;;;;;;2.75;1.80;;;;;;;;;;5054563;28;20059;-63
2021/05/07 11:05:12;;;;;;;;;;;;;;;;;;5053454;28;20043;-62
2021/05/07 11:07:51;;;;;;;3.38;2.28;;;;;;;;;;5058801;28;19932;-66
2021/05/07 11:10:27;;;;;;;2.28;1.60;;;;;;;;;;5059642;28;20098;-62
2021/05/07 11:12:55;;;;;;;6.05;1.77;;;;;;;;;;5058210;28;20044;-62
2021/05/07 11:15:23;;;;;;;4.32;2.20;;;;;;;;;;5053365;28;20175;-64
2021/05/07 11:18:01;;;;;;;4.30;2.13;;;;;;;;;;5050342;28;20060;-63
2021/05/07 11:20:33;;;;;;;5.63;2.63;;;;;;;;;;5068275;28;20037;-64
2021/05/07 11:23:02;;;;;;;4.65;2.47;;;;;;;;;;5066117;28;20041;-62
2021/05/07 11:25:32;;;;;;;5.20;2.50;;;;;;;;;;5054081;28;20125;-64
2021/05/07 11:28:11;;;;;;;4.25;3.17;;;;;;;;;;5064784;28;20037;-62
2021/05/07 11:30:46;;;;;;;5.30;3.08;;;;;;;;;;5067701;28;20482;-61
2021/05/07 11:33:14;;;;;;;3.88;3.15;;;;;;;;;;5052251;28;20045;-61
2021/05/07 11:35:42;;;;;;;3.92;2.78;;;;;;;;;;5047373;28;20053;-62
2021/05/07 11:38:10;;;;;;;3.45;2.75;;;;;;;;;;5066839;28;20137;-63
2021/05/07 11:40:39;;;;;;;4.25;3.20;;;;;;;;;;5050863;28;20076;-62
2021/05/07 11:43:08;;;;;;;3.95;2.80;;;;;;;;;;5049602;28;20136;-63
2021/05/07 11:45:36;;;;;;;4.70;3.25;;;;;;;;;;5042221;28;20048;-64
2021/05/07 11:48:07;;;;;;;4.72;3.83;;;;;;;;;;5068017;28;20491;-63
2021/05/07 11:50:35;;;;;;;4.13;3.20;;;;;;;;;;5054284;28;20045;-63
2021/05/07 11:53:03;;;;;;;4.47;3.17;;;;;;;;;;5066270;28;20056;-64
2021/05/07 11:55:32;;;;;;;5.35;3.45;;;;;;;;;;5051370;28;20579;-64
2021/05/07 11:58:01;;;;;;;5.40;3.83;;;;;;;;;;5054291;28;20128;-65
2021/05/07 12:00:30;;;;;;;8.32;4.25;;;;;;;;;;5053284;28;20045;-65
2021/05/07 12:03:02;;;;;;;6.47;4.15;;;;;;;;;;5049798;28;20119;-64
2021/05/07 12:05:33;;;;;;;6.07;4.00;;;;;;;;;;5055967;28;20045;-63
2021/05/07 12:08:02;;;;;;;7.18;4.47;;;;;;;;;;5057801;28;20076;-64
2021/05/07 12:10:30;;;;;;;7.07;4.50;;;;;;;;;;5051619;28;20546;-64
2021/05/07 12:12:58;;;;;;;5.72;3.80;;;;;;;;;;5055107;28;20422;-62
2021/05/07 12:15:31;;;;;;;4.53;3.63;;;;;;;;;;5060294;28;20246;-64
2021/05/07 12:18:00;;;;;;;6.32;4.30;;;;;;;;;;5056669;28;20045;-63
2021/05/07 12:20:31;;;;;;;4.50;3.83;;;;;;;;;;5060086;28;20041;-63
2021/05/07 12:23:00;;;;;;;6.05;3.95;;;;;;;;;;5051015;28;20078;-63
2021/05/07 12:25:29;;;;;;;5.32;3.50;;;;;;;;;;5066788;28;20045;-63
2021/05/07 12:27:57;;;;;;;4.68;3.58;;;;;;;;;;5063946;28;20052;-65
2021/05/07 12:30:25;;;;;;;5.65;4.18;;;;;;;;;;5060596;28;20063;-62
2021/05/07 12:32:55;;;;;;;4.47;3.72;;;;;;;;;;5063228;28;20044;-61
2021/05/07 12:35:24;;;;;;;6.85;3.90;;;;;;;;;;5050740;28;20772;-63
2021/05/07 12:37:51;;;;;;;5.85;3.75;;;;;;;;;;5062590;28;20512;-62
2021/05/07 12:40:37;;;;;;;9.82;3.65;;;;;;;;;;4210389;28;10002051;-66
2021/05/07 12:43:05;;;;;;;6.05;4.25;;;;;;;;;;1734335;28;10002028;-63
2021/05/07 12:45:32;;;;;;;4.82;3.50;;;;;;;;;;5059052;28;20036;-65
2021/05/07 12:48:01;;;;;;;6.03;3.85;;;;;;;;;;5059092;28;20063;-62
2021/05/07 12:50:29;;;;;;;5.95;3.97;;;;;;;;;;5067152;28;20056;-63
2021/05/07 12:52:57;;;;;;;8.85;4.25;;;;;;;;;;5057010;28;20220;-62
2021/05/07 12:55:25;;;;;;;5.50;3.38;;;;;;;;;;5059856;28;20082;-62
2021/05/07 12:57:52;;;;;;;5.00;3.60;;;;;;;;;;5058027;28;20102;-62
2021/05/07 13:00:21;;;;;;;5.78;3.63;;;;;;;;;;5059636;28;20496;-62
2021/05/07 13:02:48;;;;;;;7.60;3.10;;;;;;;;;;5043899;28;20037;-62
2021/05/07 13:05:17;;;;;;;3.55;2.80;;;;;;;;;;5051182;28;20471;-61
2021/05/07 13:07:46;;;;;;;4.03;3.00;;;;;;;;;;5048063;28;20826;-64
2021/05/07 13:10:14;;;;;;;6.45;2.60;;;;;;;;;;5048749;28;20099;-63
2021/05/07 13:12:41;;;;;;;3.03;2.42;;;;;;;;;;5051262;28;20067;-63
2021/05/07 13:15:09;;;;;;;4.32;2.25;;;;;;;;;;5048519;28;20089;-62
2021/05/07 13:17:37;;;;;;;5.72;3.20;;;;;;;;;;5048726;28;20057;-64
2021/05/07 13:20:06;;;;;;;4.65;3.13;;;;;;;;;;5048257;28;20052;-63
2021/05/07 13:22:35;;;;;;;5.60;2.92;;;;;;;;;;5046925;28;20045;-62
2021/05/07 13:25:03;;;;;;;4.32;2.83;;;;;;;;;;5032274;28;20096;-63
2021/05/07 13:27:30;;;;;;;4.57;2.92;;;;;;;;;;5046641;28;20045;-64
2021/05/07 13:29:58;;;;;;;4.13;2.90;;;;;;;;;;5048443;28;20052;-63
2021/05/07 13:32:27;;;;;;;4.68;3.28;;;;;;;;;;5040054;28;20044;-62
2021/05/07 13:34:55;;;;;;;6.25;3.42;;;;;;;;;;5038522;28;20059;-61
2021/05/07 13:37:23;;;;;;;4.82;3.20;;;;;;;;;;5033738;28;20097;-62
2021/05/07 13:39:52;;;;;;;5.15;3.45;;;;;;;;;;5047943;28;20048;-62
2021/05/07 13:42:20;;;;;;;5.07;3.10;;;;;;;;;;5046081;28;20048;-62
2021/05/07 13:44:49;;;;;;;6.72;3.40;;;;;;;;;;5048369;28;20128;-65
2021/05/07 13:47:17;;;;;;;5.95;3.30;;;;;;;;;;5036385;28;20045;-64
2021/05/07 13:49:46;;;;;;;6.07;3.42;;;;;;;;;;5043139;28;20049;-64
2021/05/07 13:52:14;;;;;;;5.60;3.45;;;;;;;;;;5028876;28;20457;-65
2021/05/07 13:54:42;;;;;;;4.65;2.45;;;;;;;;;;5035517;28;20095;-62
2021/05/07 13:57:10;;;;;;;5.32;2.65;;;;;;;;;;5048650;28;20059;-63
2021/05/07 13:59:38;;;;;;;5.88;2.97;;;;;;;;;;5048811;28;20132;-64
2021/05/07 14:02:06;;;;;;;5.07;2.80;;;;;;;;;;5036510;28;20057;-62
2021/05/07 14:04:34;;;;;;;5.68;2.60;;;;;;;;;;5046503;28;20076;-63
2021/05/07 14:07:03;;;;;;;5.90;2.70;;;;;;;;;;5048796;28;20064;-62
2021/05/07 14:09:30;;;;;;;4.43;2.95;;;;;;;;;;5048097;28;20056;-62
2021/05/07 14:11:58;;;;;;;6.18;3.10;;;;;;;;;;5043653;28;20450;-64
2021/05/07 14:14:27;;;;;;;4.38;2.88;;;;;;;;;;5047201;28;20075;-62
2021/05/07 14:16:55;;;;;;;7.35;2.88;;;;;;;;;;5048306;28;20408;-64
2021/05/07 14:19:23;;;;;;;5.15;2.60;;;;;;;;;;5047658;28;20521;-62
2021/05/07 14:21:52;;;;;;;3.58;2.20;;;;;;;;;;5048484;28;20147;-65
2021/05/07 14:24:20;;;;;;;7.82;2.45;;;;;;;;;;5048157;28;20045;-62
2021/05/07 14:26:48;;;;;;;4.90;2.40;;;;;;;;;;5048862;28;20079;-62
2021/05/07 14:29:16;;;;;;;4.13;2.22;;;;;;;;;;5041264;28;20147;-64
2021/05/07 14:31:45;;;;;;;4.95;2.95;;;;;;;;;;5034164;28;20404;-62
2021/05/07 14:34:14;;;;;;;4.15;2.47;;;;;;;;;;5043132;28;20053;-64
2021/05/07 14:36:42;;;;;;;3.72;2.70;;;;;;;;;;5047069;28;20146;-63
2021/05/07 14:39:10;;;;;;;9.02;2.88;;;;;;;;;;5039010;28;20049;-65
2021/05/07 14:41:38;;;;;;;6.53;3.20;;;;;;;;;;5037220;28;20052;-62
2021/05/07 14:44:06;;;;;;;6.20;3.10;;;;;;;;;;5053363;28;20403;-62
2021/05/07 14:46:33;;;;;;;4.25;3.13;;;;;;;;;;5051445;28;20041;-63
2021/05/07 14:49:02;;;;;;;4.70;2.92;;;;;;;;;;5057051;28;20049;-64
2021/05/07 14:51:30;;;;;;;5.40;3.17;;;;;;;;;;5051630;28;20057;-63